createdAt,value
2023-02-24T00:00:20.208Z,95700.03
2023-02-24T00:01:22.100Z,95594.84
2023-02-24T00:02:24.027Z,95552.28
2023-02-24T00:03:25.901Z,95675.25
2023-02-24T00:04:36.667Z,95694.75
2023-02-24T00:05:38.987Z,95680.06
2023-02-24T00:06:43.107Z,95684.06
2023-02-24T00:07:44.858Z,95596.50
2023-02-24T00:08:46.678Z,95542.09
2023-02-24T00:09:48.361Z,95686.13
2023-02-24T00:10:50.195Z,95673.69
2023-02-24T00:11:54.836Z,95558.16
2023-02-24T00:12:56.737Z,95664.91
2023-02-24T00:13:58.673Z,95672.50
2023-02-24T00:15:00.473Z,95683.91
2023-02-24T00:16:03.781Z,95681.59
2023-02-24T00:17:06.967Z,95588.94
2023-02-24T00:18:08.748Z,95654.84
2023-02-24T00:19:13.396Z,95638.47
2023-02-24T00:20:15.266Z,95678.09
2023-02-24T00:21:17.791Z,95677.47
2023-02-24T00:22:19.573Z,95640.16
2023-02-24T00:23:21.398Z,95675.91
2023-02-24T00:24:23.254Z,95669.09
2023-02-24T00:25:24.944Z,95677.47
2023-02-24T00:26:27.871Z,95675.91
2023-02-24T00:27:29.686Z,95642.19
2023-02-24T00:28:31.374Z,95657.47
2023-02-24T00:29:34.266Z,95661.81
2023-02-24T00:30:36.413Z,95680.88
2023-02-24T00:31:38.610Z,95686.44
2023-02-24T00:32:40.512Z,95672.66
2023-02-24T00:33:46.683Z,95631.03
2023-02-24T00:34:48.465Z,95629.03
2023-02-24T00:35:51.202Z,95681.50
2023-02-24T00:36:53.155Z,95647.56
2023-02-24T00:37:55.152Z,95659.50
2023-02-24T00:39:00.231Z,95668.63
2023-02-24T00:40:02.059Z,95671.41
2023-02-24T00:41:12.859Z,95667.09
2023-02-24T00:42:14.666Z,95658.56
2023-02-24T00:43:16.426Z,95657.03
2023-02-24T00:44:18.425Z,95630.41
2023-02-24T00:45:20.236Z,95655.47
2023-02-24T00:46:24.672Z,95635.69
2023-02-24T00:47:26.394Z,95670.34
2023-02-24T00:48:28.969Z,95661.66
2023-02-24T00:49:31.505Z,95664.44
2023-02-24T00:50:33.344Z,95660.41
2023-02-24T00:51:38.048Z,95664.28
2023-02-24T00:52:39.915Z,95628.09
2023-02-24T00:53:41.595Z,95662.75
2023-02-24T00:54:44.882Z,95638.94
2023-02-24T00:55:46.514Z,95623.94
2023-02-24T00:56:48.856Z,95657.81
2023-02-24T00:57:50.630Z,95597.31
2023-02-24T00:58:58.498Z,95648.38
2023-02-24T01:00:00.312Z,95647.25
2023-02-24T01:01:03.325Z,95655.97
2023-02-24T01:02:05.768Z,95631.34
2023-02-24T01:03:07.607Z,95628.41
2023-02-24T01:04:09.778Z,95498.47
2023-02-24T01:05:12.963Z,95592.81
2023-02-24T01:06:15.188Z,95637.06
2023-02-24T01:07:17.231Z,95634.75
2023-02-24T01:08:19.889Z,95639.09
2023-02-24T01:09:21.640Z,95635.69
2023-02-24T01:10:23.534Z,95638.47
2023-02-24T01:11:27.630Z,95651.47
2023-02-24T01:12:29.331Z,95618.97
2023-02-24T01:13:31.144Z,95639.69
2023-02-24T01:14:36.066Z,95641.09
2023-02-24T01:15:38.004Z,95612.16
2023-02-24T01:16:41.088Z,95535.28
2023-02-24T01:17:42.993Z,95641.25
2023-02-24T01:18:46.584Z,95630.72
2023-02-24T01:19:49.589Z,95633.50
2023-02-24T01:20:51.557Z,95616.03
2023-02-24T01:21:53.524Z,95616.50
2023-02-24T01:22:56.177Z,95612.78
2023-02-24T01:23:58.400Z,95638.47
2023-02-24T01:25:00.494Z,95620.84
2023-02-24T01:26:03.305Z,95541.78
2023-02-24T01:27:06.366Z,95605.22
2023-02-24T01:28:08.200Z,95623.47
2023-02-24T01:29:10.180Z,95605.81
2023-02-24T01:30:13.150Z,95605.34
2023-02-24T01:31:17.001Z,95626.25
2023-02-24T01:32:21.566Z,95528.94
2023-02-24T01:33:23.608Z,95616.81
2023-02-24T01:34:27.449Z,95632.44
2023-02-24T01:35:29.371Z,95613.72
2023-02-24T01:36:31.083Z,95621.47
2023-02-24T01:37:32.954Z,95622.09
2023-02-24T01:38:34.709Z,95629.19
2023-02-24T01:39:36.886Z,95582.16
2023-02-24T01:40:38.953Z,95539.16
2023-02-24T01:41:43.467Z,95606.91
2023-02-24T01:42:45.258Z,95624.56
2023-02-24T01:44:16.272Z,95629.03
2023-02-24T01:45:27.486Z,95601.81
2023-02-24T01:46:34.166Z,95625.78
2023-02-24T01:47:36.582Z,95626.56
2023-02-24T01:48:38.692Z,95630.91
2023-02-24T01:49:46.736Z,95620.22
2023-02-24T01:50:50.172Z,95620.69
2023-02-24T01:51:59.103Z,95608.13
2023-02-24T01:53:04.600Z,95577.50
2023-02-24T01:54:08.438Z,95626.56
2023-02-24T01:55:36.426Z,95516.88
2023-02-24T01:56:40.324Z,95625.94
2023-02-24T01:57:42.612Z,95621.00
2023-02-24T01:58:44.401Z,95605.38
2023-02-24T01:59:52.373Z,95599.47
2023-02-24T02:00:55.953Z,95627.19
2023-02-24T02:02:01.993Z,95580.00
2023-02-24T02:03:29.833Z,95629.81
2023-02-24T02:04:38.083Z,95490.25
2023-02-24T02:05:42.480Z,95621.59
2023-02-24T02:06:46.766Z,95617.44
2023-02-24T02:07:48.773Z,95615.88
2023-02-24T02:08:51.091Z,95488.53
2023-02-24T02:09:53.333Z,95607.81
2023-02-24T02:10:57.820Z,95614.47
2023-02-24T02:11:59.740Z,95624.22
2023-02-24T02:13:01.480Z,95582.47
2023-02-24T02:14:03.349Z,95635.84
2023-02-24T02:15:06.822Z,95618.22
2023-02-24T02:16:08.457Z,95631.84
2023-02-24T02:17:41.495Z,95623.00
2023-02-24T02:19:14.110Z,95610.63
2023-02-24T02:20:54.801Z,95619.28
2023-02-24T02:22:26.214Z,95618.03
2023-02-24T02:23:53.494Z,95613.56
2023-02-24T02:24:55.593Z,95622.06
2023-02-24T02:26:16.332Z,95623.94
2023-02-24T02:27:52.055Z,95643.25
2023-02-24T02:29:18.648Z,95617.41
2023-02-24T02:30:43.467Z,95635.06
2023-02-24T02:31:54.400Z,95623.47
2023-02-24T02:33:27.228Z,95627.50
2023-02-24T02:34:51.961Z,95628.44
2023-02-24T02:36:08.378Z,95624.53
2023-02-24T02:37:43.943Z,95628.88
2023-02-24T02:38:51.931Z,95490.28
2023-02-24T02:40:06.658Z,95603.97
2023-02-24T02:41:29.609Z,95618.84
2023-02-24T02:42:39.709Z,95613.88
2023-02-24T02:44:04.748Z,95607.97
2023-02-24T02:45:13.492Z,95606.75
2023-02-24T02:46:20.823Z,95639.09
2023-02-24T02:47:25.556Z,95609.84
2023-02-24T02:48:48.519Z,95651.16
2023-02-24T02:49:56.950Z,95616.97
2023-02-24T02:51:16.135Z,95610.00
2023-02-24T02:52:46.535Z,95635.84
2023-02-24T02:53:56.114Z,95501.41
2023-02-24T02:55:10.242Z,95617.91
2023-02-24T02:56:33.586Z,95628.56
2023-02-24T02:57:37.680Z,95619.91
2023-02-24T02:58:45.061Z,95619.59
2023-02-24T02:59:55.451Z,95579.03
2023-02-24T03:01:03.369Z,95615.56
2023-02-24T03:02:07.617Z,95631.34
2023-02-24T03:03:15.284Z,95617.72
2023-02-24T03:04:23.272Z,95227.22
2023-02-24T03:05:35.385Z,95495.50
2023-02-24T03:07:00.785Z,95554.44
2023-02-24T03:08:05.708Z,95619.44
2023-02-24T03:09:12.364Z,95617.88
2023-02-24T03:10:20.579Z,95598.09
2023-02-24T03:11:23.364Z,95522.56
2023-02-24T03:12:29.648Z,95598.03
2023-02-24T03:13:37.875Z,95636.28
2023-02-24T03:14:47.021Z,95617.25
2023-02-24T03:15:51.885Z,95612.00
2023-02-24T03:16:55.700Z,95611.69
2023-02-24T03:18:09.474Z,95630.25
2023-02-24T03:19:13.468Z,95638.28
2023-02-24T03:20:30.058Z,95631.81
2023-02-24T03:21:47.056Z,95628.41
2023-02-24T03:23:14.205Z,95630.53
2023-02-24T03:24:16.134Z,95629.19
2023-02-24T03:25:25.644Z,95628.53
2023-02-24T03:26:33.641Z,95628.84
2023-02-24T03:27:50.626Z,95622.38
2023-02-24T03:29:20.520Z,95630.09
2023-02-24T03:30:32.331Z,95527.47
2023-02-24T03:31:44.762Z,95635.84
2023-02-24T03:32:54.811Z,95625.16
2023-02-24T03:34:12.385Z,95602.38
2023-02-24T03:35:19.648Z,95602.69
2023-02-24T03:36:21.507Z,95593.25
2023-02-24T03:37:25.185Z,95624.84
2023-02-24T03:38:27.255Z,95583.94
2023-02-24T03:39:29.237Z,95616.63
2023-02-24T03:40:30.980Z,95604.22
2023-02-24T03:41:39.887Z,95571.72
2023-02-24T03:42:46.203Z,95620.69
2023-02-24T03:43:49.579Z,95625.28
2023-02-24T03:44:51.289Z,95517.75
2023-02-24T03:45:53.165Z,95518.53
2023-02-24T03:46:55.138Z,95614.28
2023-02-24T03:47:56.999Z,95593.41
2023-02-24T03:49:16.955Z,95577.47
2023-02-24T03:50:21.071Z,95620.34
2023-02-24T03:51:23.725Z,95599.28
2023-02-24T03:52:40.857Z,95645.72
2023-02-24T03:54:21.098Z,95628.25
2023-02-24T03:55:34.328Z,95624.19
2023-02-24T03:57:06.839Z,95613.22
2023-02-24T03:58:08.534Z,95511.06
2023-02-24T03:59:34.478Z,95625.13
2023-02-24T04:00:41.889Z,95643.06
2023-02-24T04:02:08.735Z,95624.22
2023-02-24T04:03:49.014Z,95616.94
2023-02-24T04:04:55.297Z,95622.50
2023-02-24T04:06:13.054Z,95467.41
2023-02-24T04:07:29.571Z,95615.84
2023-02-24T04:08:47.545Z,95600.38
2023-02-24T04:10:25.219Z,95620.00
2023-02-24T04:11:58.422Z,95625.88
2023-02-24T04:13:02.373Z,95654.66
2023-02-24T04:14:09.850Z,95594.16
2023-02-24T04:15:34.304Z,95603.00
2023-02-24T04:16:43.574Z,95614.31
2023-02-24T04:17:50.820Z,95595.88
2023-02-24T04:18:52.755Z,95593.25
2023-02-24T04:19:58.596Z,95608.88
2023-02-24T04:21:04.984Z,95594.00
2023-02-24T04:22:10.740Z,95550.66
2023-02-24T04:23:16.902Z,95530.22
2023-02-24T04:24:24.128Z,95589.25
2023-02-24T04:25:27.632Z,95604.84
2023-02-24T04:26:30.291Z,95561.34
2023-02-24T04:27:33.144Z,95617.06
2023-02-24T04:28:35.465Z,95568.03
2023-02-24T04:29:46.480Z,95595.88
2023-02-24T04:30:50.830Z,95616.16
2023-02-24T04:32:01.296Z,95597.28
2023-02-24T04:33:04.214Z,95604.13
2023-02-24T04:34:06.674Z,95606.41
2023-02-24T04:35:13.128Z,95594.34
2023-02-24T04:36:14.888Z,95551.78
2023-02-24T04:37:18.229Z,95601.63
2023-02-24T04:38:20.868Z,95564.03
2023-02-24T04:39:23.092Z,95597.28
2023-02-24T04:40:25.497Z,95601.66
2023-02-24T04:41:27.430Z,95586.94
2023-02-24T04:42:29.348Z,95581.22
2023-02-24T04:43:31.098Z,95580.13
2023-02-24T04:44:33.182Z,95602.09
2023-02-24T04:45:35.208Z,95585.53
2023-02-24T04:46:36.942Z,95610.44
2023-02-24T04:47:38.843Z,95568.84
2023-02-24T04:48:40.748Z,95593.13
2023-02-24T04:49:42.618Z,95564.19
2023-02-24T04:50:44.510Z,95608.44
2023-02-24T04:51:46.641Z,95560.47
2023-02-24T04:52:56.933Z,95447.38
2023-02-24T04:53:59.166Z,95600.41
2023-02-24T04:55:01.078Z,95599.47
2023-02-24T04:56:05.773Z,95511.28
2023-02-24T04:57:07.531Z,95536.06
2023-02-24T04:58:18.366Z,95582.31
2023-02-24T04:59:22.161Z,95584.63
2023-02-24T05:00:24.634Z,95543.47
2023-02-24T05:01:26.557Z,95584.94
2023-02-24T05:02:28.468Z,95587.88
2023-02-24T05:03:30.236Z,95599.16
2023-02-24T05:04:35.792Z,95596.53
2023-02-24T05:05:38.115Z,95579.03
2023-02-24T05:06:43.279Z,95598.69
2023-02-24T05:07:44.984Z,95604.72
2023-02-24T05:08:46.800Z,95591.38
2023-02-24T05:09:48.516Z,95588.63
2023-02-24T05:10:51.180Z,95593.91
2023-02-24T05:11:52.802Z,95597.78
2023-02-24T05:12:55.402Z,95425.88
2023-02-24T05:13:57.343Z,95595.00
2023-02-24T05:14:59.177Z,95595.13
2023-02-24T05:16:09.030Z,95591.28
2023-02-24T05:17:10.760Z,95596.06
2023-02-24T05:18:14.926Z,95558.63
2023-02-24T05:19:19.976Z,95588.66
2023-02-24T05:20:21.709Z,95600.69
2023-02-24T05:21:23.407Z,95588.97
2023-02-24T05:22:25.107Z,95581.69
2023-02-24T05:23:28.678Z,95578.13
2023-02-24T05:24:31.585Z,95574.72
2023-02-24T05:25:33.556Z,95598.88
2023-02-24T05:26:38.407Z,95599.16
2023-02-24T05:27:40.064Z,95559.84
2023-02-24T05:28:43.097Z,95579.50
2023-02-24T05:29:44.922Z,95618.31
2023-02-24T05:30:46.674Z,95570.38
2023-02-24T05:31:48.511Z,95469.91
2023-02-24T05:32:50.419Z,95552.69
2023-02-24T05:33:56.068Z,95604.56
2023-02-24T05:34:57.938Z,95549.34
2023-02-24T05:36:05.766Z,95597.78
2023-02-24T05:37:07.608Z,95623.59
2023-02-24T05:38:09.329Z,95595.91
2023-02-24T05:39:11.441Z,95603.03
2023-02-24T05:40:13.485Z,95588.91
2023-02-24T05:41:17.790Z,95488.94
2023-02-24T05:42:19.718Z,95604.25
2023-02-24T05:43:21.455Z,95581.81
2023-02-24T05:44:25.390Z,95573.59
2023-02-24T05:45:27.138Z,95551.78
2023-02-24T05:46:31.848Z,95601.63
2023-02-24T05:47:33.968Z,95584.75
2023-02-24T05:48:36.195Z,95607.31
2023-02-24T05:49:38.381Z,95594.03
2023-02-24T05:50:40.181Z,95486.03
2023-02-24T05:51:43.000Z,95631.31
2023-02-24T05:52:44.757Z,95486.50
2023-02-24T05:53:46.484Z,95592.97
2023-02-24T05:54:48.545Z,95600.97
2023-02-24T05:55:50.250Z,95603.28
2023-02-24T05:56:52.125Z,95610.41
2023-02-24T05:57:54.005Z,95598.97
2023-02-24T05:58:55.840Z,95576.22
2023-02-24T05:59:58.423Z,95615.69
2023-02-24T06:01:00.195Z,95617.38
2023-02-24T06:02:05.511Z,95513.69
2023-02-24T06:03:07.725Z,95603.44
2023-02-24T06:04:10.027Z,95619.72
2023-02-24T06:05:11.752Z,95509.97
2023-02-24T06:06:18.170Z,95608.06
2023-02-24T06:07:25.580Z,95633.00
2023-02-24T06:08:27.412Z,95570.31
2023-02-24T06:09:29.223Z,95639.94
2023-02-24T06:10:35.094Z,95671.63
2023-02-24T06:11:38.807Z,95632.53
2023-02-24T06:12:40.675Z,95628.50
2023-02-24T06:13:42.399Z,95631.47
2023-02-24T06:14:44.429Z,95600.63
2023-02-24T06:15:46.175Z,95626.97
2023-02-24T06:16:48.113Z,95567.53
2023-02-24T06:17:49.900Z,95628.34
2023-02-24T06:18:52.077Z,95632.53
2023-02-24T06:19:54.634Z,95626.97
2023-02-24T06:20:56.704Z,95609.31
2023-02-24T06:22:00.115Z,95531.91
2023-02-24T06:23:01.875Z,95597.69
2023-02-24T06:24:03.927Z,95624.81
2023-02-24T06:25:06.205Z,95550.44
2023-02-24T06:26:08.460Z,95620.91
2023-02-24T06:27:14.945Z,95604.06
2023-02-24T06:28:16.765Z,95567.06
2023-02-24T06:29:19.441Z,95633.50
2023-02-24T06:30:25.547Z,95629.56
2023-02-24T06:31:27.990Z,95605.31
2023-02-24T06:32:29.946Z,95581.91
2023-02-24T06:33:31.868Z,95616.56
2023-02-24T06:34:34.724Z,95607.47
2023-02-24T06:35:37.033Z,95635.63
2023-02-24T06:36:39.223Z,95611.50
2023-02-24T06:37:41.359Z,95629.72
2023-02-24T06:38:43.306Z,95626.97
2023-02-24T06:39:45.392Z,95623.25
2023-02-24T06:40:47.163Z,95624.81
2023-02-24T06:41:50.456Z,95512.91
2023-02-24T06:42:53.046Z,95611.53
2023-02-24T06:43:54.951Z,95603.47
2023-02-24T06:44:56.938Z,95595.88
2023-02-24T06:45:59.462Z,95570.50
2023-02-24T06:47:01.941Z,95599.75
2023-02-24T06:48:04.148Z,95567.28
2023-02-24T06:49:05.876Z,95580.25
2023-02-24T06:50:07.888Z,95597.75
2023-02-24T06:51:12.904Z,95613.69
2023-02-24T06:52:14.935Z,95617.56
2023-02-24T06:53:16.796Z,95597.28
2023-02-24T06:54:18.883Z,95601.13
2023-02-24T06:55:20.900Z,95544.66
2023-02-24T06:56:23.054Z,95611.22
2023-02-24T06:57:24.733Z,95612.28
2023-02-24T06:58:26.409Z,95597.59
2023-02-24T06:59:31.624Z,95605.34
2023-02-24T07:00:36.057Z,95493.78
2023-02-24T07:01:39.244Z,95567.91
2023-02-24T07:02:41.385Z,95590.47
2023-02-24T07:03:44.367Z,95581.81
2023-02-24T07:04:46.229Z,95608.91
2023-02-24T07:05:51.047Z,95484.03
2023-02-24T07:06:56.415Z,95579.16
2023-02-24T07:07:58.197Z,95599.63
2023-02-24T07:09:05.679Z,95601.94
2023-02-24T07:10:07.726Z,95598.69
2023-02-24T07:11:09.506Z,95582.47
2023-02-24T07:12:11.572Z,95591.25
2023-02-24T07:13:13.354Z,95588.63
2023-02-24T07:14:15.192Z,95589.88
2023-02-24T07:15:17.021Z,95591.91
2023-02-24T07:16:21.010Z,95588.34
2023-02-24T07:17:22.735Z,95592.16
2023-02-24T07:18:24.457Z,95542.19
2023-02-24T07:19:29.394Z,95566.63
2023-02-24T07:20:31.168Z,95596.19
2023-02-24T07:21:32.936Z,95565.88
2023-02-24T07:22:34.963Z,95587.56
2023-02-24T07:23:37.412Z,95595.31
2023-02-24T07:24:39.493Z,95570.53
2023-02-24T07:25:42.798Z,95568.50
2023-02-24T07:26:44.789Z,95588.63
2023-02-24T07:27:46.611Z,95569.91
2023-02-24T07:28:48.351Z,95594.69
2023-02-24T07:29:53.010Z,95610.00
2023-02-24T07:30:56.415Z,95584.91
2023-02-24T07:32:03.708Z,95572.84
2023-02-24T07:33:06.906Z,95549.03
2023-02-24T07:34:08.742Z,95598.25
2023-02-24T07:35:10.525Z,95586.00
2023-02-24T07:36:17.121Z,95571.78
2023-02-24T07:37:19.187Z,95609.06
2023-02-24T07:38:21.184Z,95598.84
2023-02-24T07:39:24.867Z,95498.44
2023-02-24T07:40:26.654Z,95512.06
2023-02-24T07:41:31.207Z,95599.78
2023-02-24T07:42:33.160Z,95587.72
2023-02-24T07:43:35.686Z,95608.91
2023-02-24T07:44:37.896Z,95601.03
2023-02-24T07:45:40.116Z,95602.56
2023-02-24T07:46:42.270Z,95595.94
2023-02-24T07:47:44.503Z,95579.97
2023-02-24T07:48:46.848Z,95595.47
2023-02-24T07:49:48.691Z,95601.66
2023-02-24T07:50:50.503Z,95577.81
2023-02-24T07:51:54.244Z,95595.00
2023-02-24T07:52:56.109Z,95590.06
2023-02-24T07:53:59.609Z,95589.28
2023-02-24T07:55:01.785Z,95588.31
2023-02-24T07:56:08.566Z,95583.88
2023-02-24T07:57:10.650Z,95515.19
2023-02-24T07:58:12.828Z,95577.97
2023-02-24T07:59:15.513Z,95448.38
2023-02-24T08:00:18.212Z,95565.28
2023-02-24T08:01:20.485Z,95545.81
2023-02-24T08:02:22.662Z,95534.53
2023-02-24T08:03:24.644Z,95551.66
2023-02-24T08:04:29.945Z,95555.06
2023-02-24T08:05:31.850Z,95572.41
2023-02-24T08:06:39.181Z,95577.03
2023-02-24T08:07:41.141Z,95567.28
2023-02-24T08:08:43.541Z,95570.06
2023-02-24T08:09:45.586Z,95572.22
2023-02-24T08:10:47.411Z,95441.75
2023-02-24T08:11:54.872Z,95577.34
2023-02-24T08:12:57.151Z,95563.09
2023-02-24T08:13:59.043Z,95560.63
2023-02-24T08:15:01.449Z,95574.72
2023-02-24T08:16:05.910Z,95560.63
2023-02-24T08:17:08.791Z,95570.84
2023-02-24T08:18:10.577Z,95566.03
2023-02-24T08:19:14.959Z,95544.53
2023-02-24T08:20:16.832Z,95576.88
2023-02-24T08:21:19.398Z,95568.34
2023-02-24T08:22:21.984Z,95569.41
2023-02-24T08:23:24.436Z,95553.50
2023-02-24T08:24:26.144Z,95501.88
2023-02-24T08:25:29.426Z,95559.19
2023-02-24T08:26:31.225Z,95507.56
2023-02-24T08:27:35.689Z,95483.59
2023-02-24T08:28:37.918Z,95554.56
2023-02-24T08:29:40.460Z,95553.16
2023-02-24T08:30:44.138Z,95527.97
2023-02-24T08:31:46.434Z,95597.44
2023-02-24T08:32:48.198Z,95563.19
2023-02-24T08:33:50.082Z,95465.03
2023-02-24T08:34:52.370Z,95569.69
2023-02-24T08:35:55.235Z,95535.66
2023-02-24T08:36:57.410Z,95566.41
2023-02-24T08:38:06.060Z,95549.72
2023-02-24T08:39:07.890Z,95552.38
2023-02-24T08:40:11.910Z,95568.44
2023-02-24T08:41:16.959Z,95570.31
2023-02-24T08:42:18.686Z,95535.50
2023-02-24T08:43:29.273Z,95556.09
2023-02-24T08:44:31.052Z,95529.97
2023-02-24T08:45:33.412Z,95554.84
2023-02-24T08:46:35.149Z,95521.94
2023-02-24T08:47:37.064Z,95561.16
2023-02-24T08:48:44.244Z,95565.19
2023-02-24T08:49:47.029Z,95556.78
2023-02-24T08:50:48.774Z,95560.03
2023-02-24T08:51:52.503Z,95514.41
2023-02-24T08:52:54.160Z,95550.88
2023-02-24T08:53:58.948Z,95545.16
2023-02-24T08:55:00.846Z,95510.72
2023-02-24T08:56:04.009Z,95504.91
2023-02-24T08:57:06.003Z,95560.53
2023-02-24T08:58:07.749Z,95559.84
2023-02-24T08:59:14.113Z,95564.38
2023-02-24T09:00:16.167Z,95287.50
2023-02-24T09:01:23.255Z,95562.66
2023-02-24T09:02:26.169Z,95423.03
2023-02-24T09:03:30.265Z,95554.88
2023-02-24T09:04:32.041Z,95559.69
2023-02-24T09:05:33.851Z,95552.03
2023-02-24T09:06:38.795Z,95553.63
2023-02-24T09:07:41.812Z,95556.19
2023-02-24T09:08:46.016Z,95560.00
2023-02-24T09:09:47.904Z,95529.34
2023-02-24T09:10:50.302Z,95539.63
2023-02-24T09:11:53.669Z,95576.91
2023-02-24T09:12:55.463Z,95458.75
2023-02-24T09:13:57.476Z,95554.81
2023-02-24T09:15:03.507Z,95544.28
2023-02-24T09:16:05.755Z,95518.94
2023-02-24T09:17:07.747Z,95437.81
2023-02-24T09:18:09.430Z,95502.41
2023-02-24T09:19:11.178Z,95527.03
2023-02-24T09:20:22.888Z,95565.50
2023-02-24T09:21:24.872Z,95555.72
2023-02-24T09:22:29.670Z,95540.78
2023-02-24T09:23:31.444Z,95539.16
2023-02-24T09:24:33.210Z,95558.78
2023-02-24T09:25:37.158Z,95554.66
2023-02-24T09:26:39.224Z,95553.59
2023-02-24T09:27:41.552Z,95559.22
2023-02-24T09:28:43.541Z,95556.53
2023-02-24T09:29:45.240Z,95544.59
2023-02-24T09:30:58.747Z,95358.13
2023-02-24T09:32:05.803Z,95545.59
2023-02-24T09:33:16.772Z,95546.00
2023-02-24T09:34:18.752Z,95535.66
2023-02-24T09:35:21.390Z,95547.75
2023-02-24T09:36:23.971Z,95543.09
2023-02-24T09:37:25.956Z,95549.78
2023-02-24T09:38:28.055Z,95463.41
2023-02-24T09:39:34.466Z,95433.09
2023-02-24T09:40:40.285Z,95557.78
2023-02-24T09:41:51.598Z,95545.56
2023-02-24T09:42:53.682Z,95545.56
2023-02-24T09:43:55.832Z,95546.72
2023-02-24T09:45:23.194Z,95529.75
2023-02-24T09:46:26.061Z,95541.81
2023-02-24T09:47:40.408Z,95534.56
2023-02-24T09:48:55.631Z,95491.28
2023-02-24T09:50:03.193Z,95529.16
2023-02-24T09:51:05.648Z,95534.19
2023-02-24T09:52:16.662Z,95514.13
2023-02-24T09:53:18.733Z,95509.50
2023-02-24T09:54:21.856Z,95407.06
2023-02-24T09:55:44.375Z,95506.22
2023-02-24T09:56:53.893Z,95477.66
2023-02-24T09:58:08.427Z,95511.28
2023-02-24T09:59:26.668Z,95510.31
2023-02-24T10:00:30.655Z,95502.59
2023-02-24T10:02:06.741Z,95492.41
2023-02-24T10:03:21.671Z,95426.31
2023-02-24T10:05:14.180Z,95517.94
2023-02-24T10:06:26.024Z,95374.88
2023-02-24T10:07:33.659Z,95489.03
2023-02-24T10:08:38.815Z,95490.09
2023-02-24T10:10:02.707Z,95496.88
2023-02-24T10:11:05.571Z,95449.66
2023-02-24T10:12:07.665Z,95482.13
2023-02-24T10:13:17.980Z,95472.88
2023-02-24T10:14:51.537Z,95474.31
2023-02-24T10:16:06.116Z,95476.06
2023-02-24T10:17:17.168Z,95483.44
2023-02-24T10:18:45.170Z,95475.44
2023-02-24T10:19:46.856Z,95459.91
2023-02-24T10:20:48.686Z,95469.72
2023-02-24T10:22:01.744Z,95495.94
2023-02-24T10:23:10.648Z,95467.09
2023-02-24T10:24:25.031Z,95459.16
2023-02-24T10:25:40.210Z,95468.53
2023-02-24T10:27:08.176Z,95340.56
2023-02-24T10:28:35.377Z,95462.84
2023-02-24T10:29:43.522Z,95442.72
2023-02-24T10:31:06.652Z,95462.84
2023-02-24T10:32:49.268Z,95454.22
2023-02-24T10:33:56.467Z,95450.41
2023-02-24T10:34:58.284Z,95446.03
2023-02-24T10:36:07.695Z,95446.84
2023-02-24T10:37:27.549Z,95432.22
2023-02-24T10:38:30.701Z,95435.06
2023-02-24T10:39:33.026Z,95442.22
2023-02-24T10:40:46.191Z,95359.03
2023-02-24T10:41:52.464Z,95437.88
2023-02-24T10:43:06.975Z,95436.84
2023-02-24T10:44:09.815Z,95430.66
2023-02-24T10:45:23.124Z,95420.94
2023-02-24T10:46:40.617Z,95419.59
2023-02-24T10:47:45.884Z,95423.41
2023-02-24T10:48:53.441Z,95413.63
2023-02-24T10:49:59.697Z,95395.81
2023-02-24T10:51:11.190Z,95422.91
2023-02-24T10:52:14.581Z,95407.88
2023-02-24T10:53:19.003Z,95398.84
2023-02-24T10:54:28.333Z,95384.06
2023-02-24T10:55:35.142Z,95370.31
2023-02-24T10:56:43.640Z,95416.63
2023-02-24T10:57:58.276Z,95403.34
2023-02-24T10:59:10.598Z,95392.28
2023-02-24T11:00:20.808Z,95297.63
2023-02-24T11:01:29.762Z,95405.34
2023-02-24T11:02:36.379Z,95378.72
2023-02-24T11:03:41.136Z,95383.78
2023-02-24T11:04:43.970Z,95385.91
2023-02-24T11:05:46.582Z,95381.81
2023-02-24T11:06:49.740Z,95386.44
2023-02-24T11:07:51.558Z,95392.84
2023-02-24T11:08:57.780Z,95348.06
2023-02-24T11:10:12.375Z,95361.34
2023-02-24T11:11:24.337Z,95379.72
2023-02-24T11:12:26.808Z,95369.78
2023-02-24T11:13:28.810Z,95371.53
2023-02-24T11:14:30.886Z,95365.09
2023-02-24T11:15:36.056Z,95376.13
2023-02-24T11:16:51.017Z,95371.69
2023-02-24T11:17:59.925Z,95339.88
2023-02-24T11:19:01.814Z,95241.44
2023-02-24T11:20:15.560Z,95347.56
2023-02-24T11:21:17.895Z,95375.44
2023-02-24T11:22:25.605Z,95354.22
2023-02-24T11:23:40.427Z,95354.94
2023-02-24T11:24:45.404Z,95330.94
2023-02-24T11:25:51.414Z,95351.41
2023-02-24T11:26:53.326Z,95360.88
2023-02-24T11:27:56.739Z,95306.63
2023-02-24T11:29:43.502Z,95336.78
2023-02-24T11:31:17.274Z,95352.13
2023-02-24T11:32:34.123Z,95355.44
2023-02-24T11:33:35.796Z,95365.13
2023-02-24T11:34:43.780Z,95384.25
2023-02-24T11:36:30.449Z,95321.59
2023-02-24T11:37:40.561Z,95337.50
2023-02-24T11:38:46.338Z,95334.13
2023-02-24T11:39:53.722Z,95358.31
2023-02-24T11:41:21.111Z,95241.19
2023-02-24T11:42:42.883Z,95327.94
2023-02-24T11:43:59.350Z,95291.84
2023-02-24T11:45:27.507Z,95337.25
2023-02-24T11:46:43.776Z,95323.16
2023-02-24T11:47:53.025Z,95277.81
2023-02-24T11:48:58.536Z,95319.31
2023-02-24T11:50:17.253Z,95320.38
2023-02-24T11:51:27.279Z,95283.06
2023-02-24T11:52:33.915Z,95300.97
2023-02-24T11:53:42.679Z,95271.03
2023-02-24T11:54:50.486Z,95260.63
2023-02-24T11:56:16.857Z,95278.25
2023-02-24T11:57:25.024Z,95300.28
2023-02-24T11:58:34.758Z,95302.66
2023-02-24T11:59:39.023Z,95292.16
2023-02-24T12:00:51.644Z,95297.75
2023-02-24T12:02:21.368Z,95305.91
2023-02-24T12:03:46.077Z,95276.63
2023-02-24T12:04:59.913Z,95311.19
2023-02-24T12:06:13.889Z,95286.53
2023-02-24T12:07:37.070Z,95299.41
2023-02-24T12:08:41.743Z,95275.34
2023-02-24T12:10:17.167Z,95299.63
2023-02-24T12:11:38.282Z,95284.03
2023-02-24T12:12:51.308Z,95277.63
2023-02-24T12:14:04.342Z,95284.28
2023-02-24T12:15:47.531Z,95262.78
2023-02-24T12:16:59.109Z,95179.06
2023-02-24T12:18:26.547Z,95278.38
2023-02-24T12:19:35.801Z,95183.66
2023-02-24T12:20:51.167Z,95283.16
2023-02-24T12:22:06.449Z,95278.56
2023-02-24T12:23:34.768Z,95288.75
2023-02-24T12:24:37.038Z,95280.56
2023-02-24T12:26:06.154Z,95289.75
2023-02-24T12:27:46.788Z,95271.03
2023-02-24T12:29:13.255Z,95279.22
2023-02-24T12:30:39.019Z,95272.69
2023-02-24T12:32:09.671Z,95277.06
2023-02-24T12:33:20.816Z,95275.03
2023-02-24T12:34:47.208Z,95262.56
2023-02-24T12:36:03.287Z,95191.63
2023-02-24T12:37:19.215Z,95230.66
2023-02-24T12:38:59.399Z,95247.59
2023-02-24T12:40:01.029Z,95160.75
2023-02-24T12:41:08.572Z,95214.59
2023-02-24T12:42:22.398Z,95154.72
2023-02-24T12:43:34.549Z,95176.78
2023-02-24T12:44:51.581Z,95270.66
2023-02-24T12:46:01.697Z,95266.38
2023-02-24T12:47:12.691Z,95242.63
2023-02-24T12:49:02.598Z,95248.63
2023-02-24T12:50:27.686Z,95246.50
2023-02-24T12:51:58.046Z,95233.13
2023-02-24T12:53:31.536Z,95257.50
2023-02-24T12:55:18.011Z,95251.44
2023-02-24T12:56:30.325Z,95253.06
2023-02-24T12:57:53.143Z,95219.44
2023-02-24T12:59:01.067Z,95226.59
2023-02-24T13:00:13.845Z,95235.25
2023-02-24T13:01:25.469Z,95246.53
2023-02-24T13:02:46.119Z,95241.97
2023-02-24T13:04:18.560Z,95226.59
2023-02-24T13:05:29.978Z,95149.84
2023-02-24T13:06:47.075Z,95140.31
2023-02-24T13:08:03.876Z,95255.59
2023-02-24T13:09:35.673Z,95229.91
2023-02-24T13:11:15.506Z,95238.09
2023-02-24T13:12:30.142Z,95210.25
2023-02-24T13:13:43.873Z,95231.72